createdAt,value
2022-11-16T00:01:44.055Z,11.60
2022-11-16T00:04:12.120Z,13.13
2022-11-16T00:06:39.933Z,12.00
2022-11-16T00:09:22.511Z,12.53
2022-11-16T00:11:51.350Z,12.13
2022-11-16T00:14:19.222Z,12.50
2022-11-16T00:16:46.395Z,13.70
2022-11-16T00:19:14.416Z,12.63
2022-11-16T00:21:41.439Z,12.87
2022-11-16T00:24:12.722Z,12.77
2022-11-16T00:26:39.562Z,13.57
2022-11-16T00:29:06.706Z,13.53
2022-11-16T00:31:33.414Z,12.93
2022-11-16T00:34:00.111Z,13.10
2022-11-16T00:36:27.555Z,12.57
2022-11-16T00:38:54.378Z,13.77
2022-11-16T00:41:21.379Z,14.43
2022-11-16T00:43:48.317Z,14.10
2022-11-16T00:46:15.008Z,13.63
2022-11-16T00:48:41.934Z,14.30
2022-11-16T00:51:08.764Z,13.77
2022-11-16T00:53:36.298Z,14.70
2022-11-16T00:56:03.318Z,13.30
2022-11-16T00:58:34.238Z,14.37
2022-11-16T01:01:07.400Z,14.23
2022-11-16T01:03:35.511Z,13.40
2022-11-16T01:06:04.639Z,13.67
2022-11-16T01:08:32.524Z,13.53
2022-11-16T01:11:20.174Z,15.73
2022-11-16T01:13:47.756Z,13.83
2022-11-16T01:16:16.324Z,14.50
2022-11-16T01:18:54.464Z,15.53
2022-11-16T01:21:22.647Z,14.77
2022-11-16T01:23:49.551Z,14.43
2022-11-16T01:26:16.486Z,14.90
2022-11-16T01:28:43.434Z,14.43
2022-11-16T01:31:11.586Z,14.67
2022-11-16T01:33:38.955Z,14.63
2022-11-16T01:36:14.211Z,14.93
2022-11-16T01:38:43.438Z,13.83
2022-11-16T01:41:15.327Z,14.33
2022-11-16T01:43:57.742Z,15.37
2022-11-16T01:46:30.633Z,14.43
2022-11-16T01:49:12.688Z,13.80
2022-11-16T01:51:41.643Z,13.07
2022-11-16T01:54:12.436Z,16.20
2022-11-16T01:56:49.135Z,14.67
2022-11-16T01:59:40.267Z,13.27
2022-11-16T02:02:13.593Z,13.60
2022-11-16T02:04:40.454Z,13.87
2022-11-16T02:07:15.119Z,13.90
2022-11-16T02:09:53.838Z,13.37
2022-11-16T02:12:57.979Z,13.83
2022-11-16T02:15:41.958Z,13.97
2022-11-16T02:18:36.994Z,12.77
2022-11-16T02:21:16.193Z,12.30
2022-11-16T02:24:27.601Z,11.90
2022-11-16T02:27:09.630Z,12.20
2022-11-16T02:29:42.634Z,12.30
2022-11-16T02:32:21.506Z,13.27
2022-11-16T02:35:03.146Z,12.83
2022-11-16T02:37:34.338Z,12.57
2022-11-16T02:40:06.575Z,11.90
2022-11-16T02:42:41.389Z,12.47
2022-11-16T02:45:13.243Z,11.60
2022-11-16T02:47:43.002Z,11.80
2022-11-16T02:50:15.246Z,12.20
2022-11-16T02:52:42.184Z,12.00
2022-11-16T02:55:11.496Z,10.77
2022-11-16T02:57:55.709Z,11.87
2022-11-16T03:00:25.637Z,11.87
2022-11-16T03:03:04.067Z,11.57
2022-11-16T03:05:35.390Z,12.90
2022-11-16T03:08:24.006Z,12.17
2022-11-16T03:11:18.563Z,12.30
2022-11-16T03:13:47.356Z,12.57
2022-11-16T03:16:22.472Z,12.70
2022-11-16T03:18:51.962Z,11.80
2022-11-16T03:21:33.037Z,13.00
2022-11-16T03:24:02.057Z,13.03
2022-11-16T03:26:59.771Z,12.17
2022-11-16T03:29:54.329Z,13.53
2022-11-16T03:32:30.939Z,12.70
2022-11-16T03:35:06.245Z,13.17
2022-11-16T03:37:34.582Z,13.80
2022-11-16T03:40:04.275Z,13.57
2022-11-16T03:42:33.663Z,12.43
2022-11-16T03:45:00.495Z,11.43
2022-11-16T03:47:27.345Z,12.60
2022-11-16T03:49:54.083Z,11.70
2022-11-16T03:52:22.526Z,11.33
2022-11-16T03:54:50.540Z,12.40
2022-11-16T03:57:18.615Z,11.20
2022-11-16T03:59:51.341Z,10.77
2022-11-16T04:02:18.310Z,11.33
2022-11-16T04:05:03.882Z,10.20
2022-11-16T04:07:50.183Z,10.30
2022-11-16T04:10:35.485Z,10.03
2022-11-16T04:13:22.963Z,9.90
2022-11-16T04:16:08.706Z,9.43
2022-11-16T04:18:54.090Z,8.90
2022-11-16T04:21:46.612Z,8.17
2022-11-16T04:24:21.455Z,9.13
2022-11-16T04:27:11.927Z,8.10
2022-11-16T04:29:41.563Z,8.03
2022-11-16T04:32:28.394Z,7.40
2022-11-16T04:35:14.638Z,7.00
2022-11-16T04:37:52.355Z,7.10
2022-11-16T04:40:29.436Z,8.10
2022-11-16T04:42:59.724Z,6.80
2022-11-16T04:45:48.370Z,6.47
2022-11-16T04:48:19.281Z,7.47
2022-11-16T04:50:47.236Z,8.30
2022-11-16T04:53:14.571Z,6.97
2022-11-16T04:55:50.331Z,7.20
2022-11-16T04:58:19.414Z,6.97
2022-11-16T05:00:46.554Z,6.60
2022-11-16T05:03:13.685Z,7.03
2022-11-16T05:05:40.795Z,8.20
2022-11-16T05:08:09.212Z,7.40
2022-11-16T05:10:36.494Z,7.60
2022-11-16T05:13:03.234Z,8.87
2022-11-16T05:15:30.276Z,7.73
2022-11-16T05:17:59.112Z,7.27
2022-11-16T05:20:44.836Z,7.90
2022-11-16T05:23:32.159Z,6.93
2022-11-16T05:26:04.431Z,8.77
2022-11-16T05:28:31.437Z,7.93
2022-11-16T05:30:58.430Z,7.37
2022-11-16T05:33:27.909Z,7.90
2022-11-16T05:35:54.833Z,8.00
2022-11-16T05:38:22.247Z,7.73
2022-11-16T05:40:53.049Z,7.17
2022-11-16T05:43:20.534Z,7.70
2022-11-16T05:46:05.999Z,9.63
2022-11-16T05:48:33.625Z,9.43
2022-11-16T05:51:00.517Z,10.03
2022-11-16T05:53:31.843Z,8.53
2022-11-16T05:55:58.827Z,9.40
2022-11-16T05:58:26.198Z,10.23
2022-11-16T06:00:53.655Z,13.03
2022-11-16T06:03:20.489Z,12.50
2022-11-16T06:05:47.321Z,12.37
2022-11-16T06:08:16.481Z,14.60
2022-11-16T06:10:43.331Z,13.73
2022-11-16T06:13:10.081Z,16.23
2022-11-16T06:15:38.532Z,14.33
2022-11-16T06:18:07.667Z,14.43
2022-11-16T06:20:38.148Z,16.13
2022-11-16T06:23:05.642Z,13.53
2022-11-16T06:25:32.539Z,15.40
2022-11-16T06:28:02.964Z,15.23
2022-11-16T06:30:34.247Z,14.03
2022-11-16T06:33:02.372Z,13.93
2022-11-16T06:35:29.225Z,13.07
2022-11-16T06:37:58.398Z,14.23
2022-11-16T06:40:25.780Z,13.37
2022-11-16T06:42:52.597Z,13.77
2022-11-16T06:45:19.622Z,16.13
2022-11-16T06:47:51.141Z,15.13
2022-11-16T06:50:19.279Z,14.87
2022-11-16T06:52:48.869Z,13.73
2022-11-16T06:55:17.095Z,15.70
2022-11-16T06:57:44.132Z,15.07
2022-11-16T07:00:11.518Z,13.33
2022-11-16T07:02:39.674Z,13.40
2022-11-16T07:05:09.838Z,12.30
2022-11-16T07:07:37.409Z,13.33
2022-11-16T07:10:04.951Z,12.73
2022-11-16T07:12:32.153Z,11.60
2022-11-16T07:15:00.364Z,11.27
2022-11-16T07:17:29.560Z,11.57
2022-11-16T07:19:57.439Z,11.20
2022-11-16T07:22:24.239Z,10.73
2022-11-16T07:24:51.875Z,11.27
2022-11-16T07:27:20.451Z,10.60
2022-11-16T07:29:50.153Z,10.03
2022-11-16T07:32:35.690Z,9.80
2022-11-16T07:35:28.752Z,9.87
2022-11-16T07:37:55.813Z,8.10
2022-11-16T07:40:22.608Z,8.53
2022-11-16T07:42:50.043Z,8.03
2022-11-16T07:45:33.580Z,7.80
2022-11-16T07:48:06.214Z,7.20
2022-11-16T07:50:51.474Z,7.13
2022-11-16T07:53:19.950Z,6.37
2022-11-16T07:55:54.865Z,7.10
2022-11-16T07:58:23.857Z,5.77
2022-11-16T08:00:51.106Z,5.53
2022-11-16T08:03:23.338Z,5.33
2022-11-16T08:06:02.477Z,5.23
2022-11-16T08:08:29.921Z,4.80
2022-11-16T08:11:01.651Z,5.23
2022-11-16T08:13:31.885Z,4.97
2022-11-16T08:16:10.574Z,5.10
2022-11-16T08:18:39.447Z,4.60
2022-11-16T08:21:08.767Z,4.83
2022-11-16T08:23:35.909Z,5.30
2022-11-16T08:26:06.550Z,4.97
2022-11-16T08:28:34.049Z,6.67
2022-11-16T08:31:08.131Z,6.13
2022-11-16T08:33:35.353Z,6.87
2022-11-16T08:36:13.590Z,6.90
2022-11-16T08:38:40.996Z,6.23
2022-11-16T08:41:08.093Z,5.90
2022-11-16T08:43:35.880Z,5.60
2022-11-16T08:46:03.186Z,8.07
2022-11-16T08:48:30.126Z,6.60
2022-11-16T08:51:21.560Z,7.07
2022-11-16T08:53:57.360Z,6.30
2022-11-16T08:56:27.092Z,5.53
2022-11-16T08:58:58.582Z,5.37
2022-11-16T09:01:28.747Z,6.03
2022-11-16T09:03:56.020Z,5.47
2022-11-16T09:06:24.114Z,7.40
2022-11-16T09:08:51.054Z,6.30
2022-11-16T09:11:20.829Z,5.67
2022-11-16T09:13:48.806Z,5.37
2022-11-16T09:16:16.729Z,5.40
2022-11-16T09:18:48.459Z,5.57
2022-11-16T09:21:21.055Z,5.50
2022-11-16T09:23:48.914Z,4.60
2022-11-16T09:26:19.087Z,4.77
2022-11-16T09:28:45.987Z,4.93
2022-11-16T09:31:12.750Z,4.53
2022-11-16T09:33:39.537Z,4.93
2022-11-16T09:36:08.814Z,4.73
2022-11-16T09:41:33.416Z,5.60
2022-11-16T09:44:24.513Z,4.23
2022-11-16T09:46:56.649Z,3.90
2022-11-16T09:49:28.831Z,4.77
2022-11-16T09:52:03.679Z,4.73
2022-11-16T09:54:35.427Z,4.47
2022-11-16T09:57:12.380Z,4.67
2022-11-16T09:59:51.802Z,4.87
2022-11-16T10:02:34.411Z,4.57
2022-11-16T10:05:21.914Z,4.17
2022-11-16T10:07:54.863Z,3.73
2022-11-16T10:10:33.173Z,3.70
2022-11-16T10:13:05.973Z,3.80
2022-11-16T10:16:06.703Z,4.03
2022-11-16T10:18:59.740Z,3.30
2022-11-16T10:21:38.531Z,3.90
2022-11-16T10:24:11.089Z,4.23
2022-11-16T10:27:04.187Z,4.03
2022-11-16T10:30:10.865Z,3.70
2022-11-16T10:32:48.848Z,3.90
2022-11-16T10:35:25.676Z,3.67
2022-11-16T10:37:52.505Z,3.70
2022-11-16T10:40:26.770Z,3.80
2022-11-16T10:43:11.415Z,3.43
2022-11-16T10:46:00.311Z,3.23
2022-11-16T10:48:41.230Z,4.10
2022-11-16T10:51:09.636Z,3.83
2022-11-16T10:53:43.766Z,3.67
2022-11-16T10:56:40.403Z,3.80
2022-11-16T10:59:10.550Z,4.73
2022-11-16T11:01:41.717Z,3.47
2022-11-16T11:04:16.423Z,3.50
2022-11-16T11:06:43.883Z,3.00
2022-11-16T11:09:30.982Z,3.37
2022-11-16T11:12:37.828Z,3.60
2022-11-16T11:15:26.238Z,3.17
2022-11-16T11:18:11.702Z,3.43
2022-11-16T11:20:44.742Z,3.63
2022-11-16T11:23:21.453Z,3.80
2022-11-16T11:25:52.519Z,3.43
2022-11-16T11:28:31.674Z,3.10
2022-11-16T11:31:16.802Z,3.20
2022-11-16T11:33:50.247Z,3.30
2022-11-16T11:36:23.718Z,2.70
2022-11-16T11:39:05.877Z,2.90
2022-11-16T11:41:39.294Z,3.20
2022-11-16T11:44:18.410Z,3.20
2022-11-16T11:47:56.603Z,2.73
2022-11-16T11:50:45.928Z,2.57
2022-11-16T11:53:15.728Z,3.00
2022-11-16T11:55:42.552Z,2.90
2022-11-16T11:58:16.111Z,2.60
2022-11-16T12:00:58.035Z,2.73
2022-11-16T12:03:42.972Z,2.80
2022-11-16T12:06:31.219Z,2.93
2022-11-16T12:09:23.435Z,2.40
2022-11-16T12:12:07.353Z,2.73
2022-11-16T12:14:51.222Z,2.67
2022-11-16T12:17:27.121Z,2.93
2022-11-16T12:20:00.033Z,2.97
2022-11-16T12:23:02.580Z,2.60
2022-11-16T12:26:01.701Z,2.77
2022-11-16T12:29:09.630Z,3.10
2022-11-16T12:31:50.433Z,2.93
2022-11-16T12:34:31.348Z,3.20
2022-11-16T12:37:22.521Z,2.77
2022-11-16T12:40:16.846Z,2.90
2022-11-16T12:42:58.594Z,2.80
2022-11-16T12:45:43.555Z,2.90
2022-11-16T12:48:25.686Z,2.40
2022-11-16T12:51:07.484Z,2.13
2022-11-16T12:53:43.235Z,2.17
2022-11-16T12:56:33.081Z,2.03
2022-11-16T12:59:11.636Z,2.07
2022-11-16T13:01:56.293Z,2.80
2022-11-16T13:04:35.928Z,2.47
2022-11-16T13:07:11.145Z,2.63
2022-11-16T13:09:43.386Z,2.50
2022-11-16T13:12:16.938Z,2.40
2022-11-16T13:14:48.091Z,1.93
2022-11-16T13:17:28.130Z,2.40
2022-11-16T13:20:15.503Z,2.43
2022-11-16T13:22:51.533Z,2.43
2022-11-16T13:25:31.395Z,1.93
2022-11-16T13:28:10.449Z,2.30
2022-11-16T13:31:03.351Z,3.00
2022-11-16T13:33:32.653Z,2.53
2022-11-16T13:35:59.411Z,2.17
2022-11-16T13:38:54.168Z,2.73
2022-11-16T13:41:33.468Z,2.10
2022-11-16T13:44:01.596Z,2.27
2022-11-16T13:46:58.698Z,2.10
2022-11-16T13:49:27.238Z,2.10
2022-11-16T13:52:22.204Z,2.10
2022-11-16T13:54:53.589Z,2.23
2022-11-16T13:57:27.777Z,2.10
2022-11-16T14:00:29.816Z,2.13
2022-11-16T14:03:15.213Z,2.30
2022-11-16T14:05:43.581Z,2.13
2022-11-16T14:08:19.461Z,2.30
2022-11-16T14:10:49.965Z,2.10
2022-11-16T14:13:39.132Z,2.03
2022-11-16T14:16:15.041Z,1.90
2022-11-16T14:18:42.906Z,2.27
2022-11-16T14:21:15.390Z,2.00
2022-11-16T14:23:48.183Z,2.00
2022-11-16T14:26:33.056Z,2.23
2022-11-16T14:29:26.991Z,3.00
2022-11-16T14:31:56.935Z,2.50
2022-11-16T14:34:30.540Z,2.77
2022-11-16T14:37:00.891Z,2.50
2022-11-16T14:39:27.768Z,2.30
2022-11-16T14:42:18.727Z,2.53
2022-11-16T14:44:46.487Z,2.27
2022-11-16T14:47:24.460Z,2.17
2022-11-16T14:49:51.794Z,2.17
2022-11-16T14:52:41.234Z,2.17
2022-11-16T14:55:16.793Z,2.40
2022-11-16T14:57:43.547Z,2.10
2022-11-16T15:00:22.650Z,2.63
2022-11-16T15:02:59.181Z,4.83
2022-11-16T15:05:33.365Z,2.50
2022-11-16T15:08:01.334Z,2.20
2022-11-16T15:10:29.454Z,2.50
2022-11-16T15:12:57.540Z,2.50
2022-11-16T15:15:27.778Z,3.10
2022-11-16T15:18:00.501Z,3.43
2022-11-16T15:20:33.795Z,2.93
2022-11-16T15:23:02.158Z,3.83
2022-11-16T15:25:42.404Z,3.40
2022-11-16T15:28:26.145Z,3.33
2022-11-16T15:30:54.543Z,3.20
2022-11-16T15:33:30.194Z,4.20
2022-11-16T15:35:57.557Z,3.00
2022-11-16T15:38:32.801Z,3.80
2022-11-16T15:41:04.315Z,3.93
2022-11-16T15:43:31.053Z,4.10
2022-11-16T15:45:59.192Z,5.10
2022-11-16T15:48:27.305Z,5.17
2022-11-16T15:51:07.887Z,4.67
2022-11-16T15:53:47.926Z,4.50
2022-11-16T15:56:20.575Z,4.60
2022-11-16T15:58:48.749Z,4.40
2022-11-16T16:01:16.545Z,4.90
2022-11-16T16:04:19.025Z,4.50
2022-11-16T16:06:45.937Z,4.83
2022-11-16T16:09:21.106Z,6.00
2022-11-16T16:11:48.237Z,4.70
2022-11-16T16:14:29.697Z,5.00
2022-11-16T16:17:00.682Z,5.20
2022-11-16T16:19:37.024Z,5.07
2022-11-16T16:22:05.652Z,4.93
2022-11-16T16:24:46.997Z,5.03
2022-11-16T16:27:38.066Z,5.37
2022-11-16T16:30:06.392Z,5.27
2022-11-16T16:32:35.511Z,6.30
2022-11-16T16:35:05.567Z,6.23
2022-11-16T16:37:33.833Z,6.77
2022-11-16T16:40:00.590Z,7.03
2022-11-16T16:42:27.576Z,6.27
2022-11-16T16:44:54.385Z,5.70
2022-11-16T16:47:21.249Z,5.90
2022-11-16T16:49:48.907Z,6.00
2022-11-16T16:52:15.692Z,6.20
2022-11-16T16:54:42.612Z,5.43
2022-11-16T16:57:14.350Z,5.77
2022-11-16T16:59:41.199Z,5.40
2022-11-16T17:02:11.646Z,6.47
2022-11-16T17:04:38.482Z,6.43
2022-11-16T17:07:05.407Z,6.03
2022-11-16T17:09:32.295Z,5.53
2022-11-16T17:11:59.021Z,5.87
2022-11-16T17:14:25.802Z,5.50
2022-11-16T17:16:52.544Z,6.00
2022-11-16T17:19:19.920Z,6.40
2022-11-16T17:21:46.705Z,6.03
2022-11-16T17:24:13.504Z,6.47
2022-11-16T17:26:40.784Z,6.30
2022-11-16T17:29:07.504Z,6.33
2022-11-16T17:31:34.254Z,7.20
2022-11-16T17:34:01.186Z,7.10
2022-11-16T17:36:27.908Z,7.37
2022-11-16T17:38:54.603Z,8.20
2022-11-16T17:41:22.186Z,7.60
2022-11-16T17:43:52.929Z,7.20
2022-11-16T17:46:21.844Z,7.93
2022-11-16T17:48:50.584Z,9.60
2022-11-16T17:51:22.952Z,8.33
2022-11-16T17:53:49.808Z,7.43
2022-11-16T17:56:22.119Z,7.87
2022-11-16T17:58:52.248Z,7.57
2022-11-16T18:01:19.410Z,6.77
2022-11-16T18:03:46.132Z,7.10
2022-11-16T18:06:18.526Z,8.13
2022-11-16T18:08:46.270Z,10.73
2022-11-16T18:11:19.182Z,10.80
2022-11-16T18:13:46.953Z,9.13
2022-11-16T18:16:19.462Z,8.13
2022-11-16T18:18:47.406Z,6.90
2022-11-16T18:21:20.375Z,6.70
2022-11-16T18:23:47.988Z,6.43
2022-11-16T18:26:17.540Z,6.50
2022-11-16T18:28:45.380Z,6.23
2022-11-16T18:31:15.299Z,6.33
2022-11-16T18:33:42.435Z,6.00
2022-11-16T18:36:09.915Z,5.70
2022-11-16T18:38:37.494Z,5.27
2022-11-16T18:41:13.398Z,5.30
2022-11-16T18:43:40.763Z,5.80
2022-11-16T18:46:07.786Z,5.13
2022-11-16T18:48:34.774Z,4.60
2022-11-16T18:51:02.991Z,4.97
2022-11-16T18:53:30.869Z,5.80
2022-11-16T18:55:58.436Z,5.60
2022-11-16T19:01:16.974Z,6.30
2022-11-16T19:03:43.917Z,6.23
2022-11-16T19:06:11.783Z,6.43
2022-11-16T19:08:40.460Z,6.27
2022-11-16T19:11:09.762Z,4.67
2022-11-16T19:13:37.021Z,6.00
2022-11-16T19:16:04.385Z,5.73
2022-11-16T19:18:31.611Z,6.83
2022-11-16T19:21:23.630Z,5.60
2022-11-16T19:23:52.942Z,7.40
2022-11-16T19:26:25.630Z,5.87
2022-11-16T19:28:53.587Z,6.07
2022-11-16T19:31:24.507Z,6.73
2022-11-16T19:33:55.966Z,5.90
2022-11-16T19:36:24.094Z,4.10
2022-11-16T19:38:51.229Z,4.60
2022-11-16T19:41:21.246Z,4.67
2022-11-16T19:43:49.288Z,4.73
2022-11-16T19:46:17.018Z,4.40
2022-11-16T19:48:44.951Z,3.80
2022-11-16T19:51:21.295Z,4.60
2022-11-16T19:53:48.343Z,4.00
2022-11-16T19:56:17.443Z,4.27
2022-11-16T19:58:44.316Z,4.60
2022-11-16T20:01:19.520Z,4.13
2022-11-16T20:03:48.693Z,4.30
2022-11-16T20:06:24.791Z,5.33
2022-11-16T20:08:53.860Z,5.03
2022-11-16T20:11:23.523Z,3.83
2022-11-16T20:13:52.161Z,4.30
2022-11-16T20:16:22.563Z,4.47
2022-11-16T20:18:50.439Z,3.90
2022-11-16T20:21:34.401Z,3.83
2022-11-16T20:24:06.422Z,3.67
2022-11-16T20:26:36.176Z,4.10
2022-11-16T20:29:03.969Z,3.93
2022-11-16T20:31:33.193Z,3.93
2022-11-16T20:34:02.394Z,3.63
2022-11-16T20:36:30.642Z,3.33
2022-11-16T20:38:58.984Z,3.47
2022-11-16T20:41:32.415Z,3.20
2022-11-16T20:44:00.997Z,3.57
2022-11-16T20:46:29.925Z,3.93
2022-11-16T20:48:59.429Z,3.70
2022-11-16T20:51:27.196Z,4.43
2022-11-16T20:53:54.140Z,3.90
2022-11-16T20:56:21.510Z,3.50
2022-11-16T20:58:49.479Z,3.57
2022-11-16T21:01:28.316Z,3.73
2022-11-16T21:03:56.375Z,3.87
2022-11-16T21:06:23.265Z,3.57
2022-11-16T21:08:50.109Z,4.03
2022-11-16T21:11:20.154Z,3.73
2022-11-16T21:14:06.294Z,3.73
2022-11-16T21:16:33.699Z,3.87
2022-11-16T21:19:00.708Z,3.57
2022-11-16T21:21:27.696Z,3.70
2022-11-16T21:23:55.007Z,3.30
2022-11-16T21:26:30.093Z,3.27
2022-11-16T21:28:57.860Z,3.60
2022-11-16T21:31:27.443Z,3.17
2022-11-16T21:33:54.612Z,3.33
2022-11-16T21:36:24.379Z,3.37
2022-11-16T21:38:51.977Z,3.10
2022-11-16T21:41:20.904Z,3.47
2022-11-16T21:43:47.927Z,3.30
2022-11-16T21:46:17.387Z,4.03
2022-11-16T21:48:44.930Z,3.63
2022-11-16T21:51:13.602Z,4.13
2022-11-16T21:53:40.649Z,3.37
2022-11-16T21:56:10.612Z,3.47
2022-11-16T21:58:38.989Z,3.80
2022-11-16T22:01:06.014Z,3.30
2022-11-16T22:03:33.080Z,3.60
2022-11-16T22:06:20.950Z,3.70
2022-11-16T22:08:48.126Z,3.43
2022-11-16T22:11:15.835Z,3.23
2022-11-16T22:13:43.555Z,3.50
2022-11-16T22:16:13.326Z,3.60
2022-11-16T22:18:40.100Z,4.77
2022-11-16T22:21:07.541Z,3.93
2022-11-16T22:23:36.026Z,4.40
2022-11-16T22:26:05.636Z,3.83
2022-11-16T22:28:33.364Z,3.80
2022-11-16T22:31:02.060Z,3.83
2022-11-16T22:33:29.395Z,3.87
2022-11-16T22:35:56.299Z,4.07
2022-11-16T22:38:23.443Z,3.97
2022-11-16T22:40:55.302Z,3.70
2022-11-16T22:43:25.030Z,4.10
2022-11-16T22:45:51.729Z,3.70
2022-11-16T22:48:18.515Z,3.03
2022-11-16T22:50:45.319Z,3.33
2022-11-16T22:53:12.153Z,4.10
2022-11-16T22:55:39.269Z,3.73
2022-11-16T22:58:06.524Z,4.73
2022-11-16T23:00:40.557Z,3.80
2022-11-16T23:03:08.734Z,3.93
2022-11-16T23:05:35.470Z,3.70
2022-11-16T23:08:02.163Z,3.60
2022-11-16T23:10:29.070Z,3.77
2022-11-16T23:13:14.037Z,3.50
2022-11-16T23:15:49.946Z,4.17
2022-11-16T23:18:18.014Z,4.20
2022-11-16T23:21:03.311Z,3.73
2022-11-16T23:23:48.589Z,3.83
2022-11-16T23:26:41.233Z,3.63
2022-11-16T23:29:09.659Z,3.87
2022-11-16T23:31:37.545Z,4.03
2022-11-16T23:34:04.493Z,4.00
2022-11-16T23:36:31.203Z,4.23
2022-11-16T23:38:57.969Z,4.10
2022-11-16T23:41:43.197Z,4.37
2022-11-16T23:44:09.979Z,4.67
2022-11-16T23:46:36.696Z,4.07
2022-11-16T23:49:03.466Z,4.30
2022-11-16T23:51:30.189Z,4.33
2022-11-16T23:53:56.926Z,4.10
2022-11-16T23:56:23.755Z,4.17
2022-11-16T23:58:50.537Z,4.60
